SNOW

Not for real navigation. The accuracy of this data is not assured See disclaimer for more information

No stations matching search criteria

ICAO NAME COUNTRY WIND Kt GUST Kt VIS m TEMP/DEW C BARO METAR
SAZS Bariloche Aerodrome Argentina 5 0 5000 0/0 29.80 SAZS 192200Z 29005KT 5000 VCSH SCT003 BKN016 BKN026 00/00 Q1009 RESN